Time;durP1;ratioP1;P1;durP2;ratioP2;P2;SDS_P1;SDS_P2;PMS_P1;PMS_P2;Temp;Humidity;BMP_temperature;BMP_pressure;BME280_temperature;BME280_humidity;BME280_pressure;Samples;Min_cycle;Max_cycle;Signal;HPM_P1;HPM_P2
2022/02/18 00:00:23;;;;;;;11.13;3.30;;;7.40;99.90;;;;;;4916254;29;20537;-83
2022/02/18 00:02:58;;;;;;;15.07;3.47;;;7.70;99.90;;;;;;4903870;29;20471;-82
2022/02/18 00:05:24;;;;;;;12.27;4.23;;;8.10;99.90;;;;;;4922839;29;21231;-82
2022/02/18 00:07:50;;;;;;;5.77;3.63;;;7.60;99.90;;;;;;4902341;29;20431;-82
2022/02/18 00:10:16;;;;;;;8.20;3.33;;;7.60;99.90;;;;;;4916990;29;20961;-82
2022/02/18 00:12:42;;;;;;;8.33;3.47;;;7.50;99.90;;;;;;4907195;29;20443;-82
2022/02/18 00:15:08;;;;;;;4.90;2.43;;;8.70;99.90;;;;;;4914411;29;20204;-82
2022/02/18 00:17:34;;;;;;;8.83;4.43;;;7.50;99.90;;;;;;4920142;29;20192;-83
2022/02/18 00:19:59;;;;;;;6.47;4.47;;;7.10;99.90;;;;;;4911593;29;20490;-83
2022/02/18 00:22:27;;;;;;;8.43;3.50;;;7.50;99.90;;;;;;4919445;29;20215;-82
2022/02/18 00:24:52;;;;;;;8.17;4.30;;;9.00;99.90;;;;;;4911418;29;20291;-83
2022/02/18 00:27:18;;;;;;;11.83;3.53;;;7.60;99.90;;;;;;4918736;29;20548;-83
2022/02/18 00:29:44;;;;;;;10.10;4.10;;;7.80;99.90;;;;;;4915061;29;20196;-83
2022/02/18 00:32:09;;;;;;;18.33;5.60;;;6.90;99.90;;;;;;4921260;29;20198;-83
2022/02/18 00:34:36;;;;;;;15.10;5.07;;;7.40;99.90;;;;;;4897993;29;20213;-82
2022/02/18 00:37:02;;;;;;;22.03;3.97;;;7.80;99.90;;;;;;4915602;29;20275;-83
2022/02/18 00:39:28;;;;;;;9.87;3.83;;;7.50;99.90;;;;;;4910375;29;20455;-83
2022/02/18 00:41:54;;;;;;;12.30;5.10;;;7.60;99.90;;;;;;4915952;29;20793;-82
2022/02/18 00:44:25;;;;;;;7.57;3.73;;;7.50;99.90;;;;;;4921063;29;20692;-81
2022/02/18 00:46:52;;;;;;;16.80;4.23;;;8.20;99.90;;;;;;4923433;29;20392;-82
2022/02/18 00:49:21;;;;;;;10.90;3.63;;;7.20;99.90;;;;;;4921302;29;20439;-82
2022/02/18 00:51:47;;;;;;;12.05;3.95;;;7.20;99.90;;;;;;4927472;29;20671;-82
2022/02/18 00:54:13;;;;;;;11.82;3.67;;;7.50;99.90;;;;;;4917215;29;20592;-82
2022/02/18 00:56:40;;;;;;;9.70;3.40;;;7.50;99.90;;;;;;4913850;29;20188;-82
2022/02/18 00:59:06;;;;;;;12.40;4.57;;;7.60;99.90;;;;;;4918377;29;20781;-82
2022/02/18 01:01:32;;;;;;;8.03;3.43;;;7.50;99.90;;;;;;4911863;29;20558;-82
2022/02/18 01:03:58;;;;;;;9.30;3.10;;;7.50;99.90;;;;;;4911140;29;20981;-83
2022/02/18 01:06:27;;;;;;;14.27;3.97;;;7.70;99.90;;;;;;4895089;29;20447;-82
2022/02/18 01:08:53;;;;;;;9.20;3.60;;;6.90;99.90;;;;;;4922694;29;20188;-83
2022/02/18 01:11:20;;;;;;;10.00;4.10;;;8.00;99.90;;;;;;4911618;29;20188;-82
2022/02/18 01:13:46;;;;;;;9.70;3.37;;;7.50;99.90;;;;;;4898593;29;20836;-83
2022/02/18 01:16:13;;;;;;;6.50;4.00;;;7.30;99.90;;;;;;4919916;29;20416;-82
2022/02/18 01:18:38;;;;;;;15.20;4.17;;;8.20;99.90;;;;;;4918376;29;21266;-82
2022/02/18 01:21:04;;;;;;;6.90;3.00;;;7.80;99.90;;;;;;4911517;29;20566;-81
2022/02/18 01:23:30;;;;;;;8.33;3.30;;;7.90;99.90;;;;;;4921643;29;20336;-82
2022/02/18 01:25:56;;;;;;;18.50;4.13;;;7.70;99.90;;;;;;4912260;29;20180;-81
2022/02/18 01:28:21;;;;;;;13.80;4.20;;;9.10;99.90;;;;;;4900047;29;20198;-81
2022/02/18 01:30:47;;;;;;;19.33;3.87;;;7.60;99.90;;;;;;4918522;29;20267;-81
2022/02/18 01:33:14;;;;;;;13.77;3.40;;;7.70;99.90;;;;;;4917846;29;20191;-82
2022/02/18 01:35:40;;;;;;;9.80;3.90;;;7.80;99.90;;;;;;4911737;29;20505;-81
2022/02/18 01:38:06;;;;;;;8.13;3.00;;;7.70;99.90;;;;;;4919706;29;20450;-82
2022/02/18 01:40:32;;;;;;;9.10;3.40;;;7.20;99.90;;;;;;4922043;29;20507;-83
2022/02/18 01:42:58;;;;;;;9.33;3.87;;;7.50;99.90;;;;;;4913148;29;20712;-81
2022/02/18 01:45:24;;;;;;;16.53;4.40;;;7.70;99.90;;;;;;4893745;29;20538;-82
2022/02/18 01:47:51;;;;;;;8.90;3.20;;;8.30;99.90;;;;;;4898053;29;20440;-81
2022/02/18 01:50:16;;;;;;;12.10;3.67;;;7.70;99.90;;;;;;4892300;29;20440;-81
2022/02/18 01:52:46;;;;;;;8.60;3.20;;;7.70;99.90;;;;;;4910683;29;20446;-82
2022/02/18 01:55:13;;;;;;;16.30;4.60;;;7.80;99.90;;;;;;4886994;29;20200;-82
2022/02/18 01:57:47;;;;;;;10.80;3.77;;;7.90;99.90;;;;;;4911185;29;20452;-82
2022/02/18 02:00:15;;;;;;;9.40;3.30;;;7.70;99.90;;;;;;4912369;29;20840;-82
2022/02/18 02:02:42;;;;;;;13.00;3.40;;;7.90;99.90;;;;;;4916196;29;20567;-81
2022/02/18 02:05:08;;;;;;;6.23;4.00;;;7.80;99.90;;;;;;4911547;29;20454;-82
2022/02/18 02:07:35;;;;;;;10.10;2.97;;;7.80;99.90;;;;;;4920484;29;20420;-83
2022/02/18 02:10:01;;;;;;;24.13;5.07;;;7.90;99.90;;;;;;4911043;29;20443;-83
2022/02/18 02:12:27;;;;;;;8.33;4.23;;;7.70;99.90;;;;;;4918863;29;20523;-82
2022/02/18 02:14:52;;;;;;;7.40;3.30;;;9.30;99.90;;;;;;4910204;29;20543;-82
2022/02/18 02:17:18;;;;;;;12.87;3.13;;;7.80;99.90;;;;;;4913720;29;20491;-82
2022/02/18 02:19:45;;;;;;;13.20;3.83;;;7.80;99.90;;;;;;4911188;29;20199;-82
2022/02/18 02:22:15;;;;;;;8.43;3.30;;;9.50;99.90;;;;;;4913214;29;20795;-82
2022/02/18 02:24:40;;;;;;;21.87;6.50;;;7.80;99.90;;;;;;4919046;29;20210;-82
2022/02/18 02:27:06;;;;;;;19.70;4.03;;;8.00;99.90;;;;;;4923737;29;20804;-82
2022/02/18 02:29:32;;;;;;;15.07;3.30;;;7.90;99.90;;;;;;4891798;29;20200;-82
2022/02/18 02:31:58;;;;;;;9.83;3.70;;;7.80;99.90;;;;;;4918670;29;20199;-82
2022/02/18 02:34:24;;;;;;;15.27;4.45;;;7.90;99.90;;;;;;4919079;29;20199;-82
2022/02/18 02:36:50;;;;;;;15.87;4.43;;;7.90;99.90;;;;;;4919346;29;20198;-82
2022/02/18 02:39:16;;;;;;;7.50;3.47;;;8.00;99.90;;;;;;4916935;29;20207;-82
2022/02/18 02:41:42;;;;;;;8.17;3.10;;;8.00;99.90;;;;;;4916402;29;20481;-82
2022/02/18 02:44:08;;;;;;;9.77;4.57;;;7.70;99.90;;;;;;4921519;29;20222;-82
2022/02/18 02:46:37;;;;;;;12.23;3.93;;;8.10;99.90;;;;;;4910766;29;20585;-82
2022/02/18 02:49:03;;;;;;;9.53;3.30;;;7.70;99.90;;;;;;4917439;29;20518;-82
2022/02/18 02:51:30;;;;;;;14.23;3.53;;;7.90;99.90;;;;;;4910128;29;20456;-82
2022/02/18 02:53:55;;;;;;;14.57;3.50;;;7.60;99.90;;;;;;4920856;29;20439;-82
2022/02/18 02:56:21;;;;;;;6.10;3.27;;;8.00;99.90;;;;;;4918373;29;20432;-82
2022/02/18 02:58:49;;;;;;;16.13;3.93;;;7.80;99.90;;;;;;4916397;29;20195;-82
2022/02/18 03:01:15;;;;;;;9.55;3.13;;;8.30;99.90;;;;;;4893366;29;20579;-83
2022/02/18 03:03:40;;;;;;;8.73;3.37;;;7.90;99.90;;;;;;4911392;29;20661;-81
2022/02/18 03:06:06;;;;;;;19.43;4.07;;;7.60;99.90;;;;;;4901428;29;20511;-82
2022/02/18 03:08:35;;;;;;;13.73;3.10;;;7.80;99.90;;;;;;4913940;29;20907;-82
2022/02/18 03:11:16;;;;;;;11.57;3.63;;;8.10;99.90;;;;;;4920589;29;20191;-82
2022/02/18 03:13:48;;;;;;;23.83;4.30;;;7.80;99.90;;;;;;4907872;29;20479;-82
2022/02/18 03:16:14;;;;;;;25.77;3.77;;;8.50;99.90;;;;;;4918856;29;20536;-82
2022/02/18 03:18:40;;;;;;;11.23;3.80;;;8.20;99.90;;;;;;4894534;29;20998;-81
2022/02/18 03:21:07;;;;;;;21.20;4.17;;;8.00;99.90;;;;;;4909776;29;20522;-81
2022/02/18 03:23:33;;;;;;;11.97;5.00;;;7.80;99.90;;;;;;4914806;29;20939;-82
2022/02/18 03:25:59;;;;;;;13.53;4.33;;;7.90;99.90;;;;;;4914760;29;20432;-81
2022/02/18 03:28:24;;;;;;;7.90;4.40;;;7.70;99.90;;;;;;4916232;29;20486;-81
2022/02/18 03:30:50;;;;;;;20.20;3.73;;;7.70;99.90;;;;;;4915884;29;20199;-82
2022/02/18 03:33:16;;;;;;;13.00;3.20;;;7.80;99.90;;;;;;4916460;29;20188;-81
2022/02/18 03:35:41;;;;;;;15.53;4.23;;;9.40;99.90;;;;;;4910112;29;20195;-81
2022/02/18 03:38:07;;;;;;;13.40;3.67;;;8.10;99.90;;;;;;4918963;29;20184;-81
2022/02/18 03:40:34;;;;;;;11.37;3.90;;;8.20;99.90;;;;;;4907678;29;20587;-82
2022/02/18 03:43:00;;;;;;;8.23;2.95;;;8.50;99.90;;;;;;4922194;29;20516;-82
2022/02/18 03:45:26;;;;;;;16.37;4.10;;;8.40;99.90;;;;;;4908572;29;20772;-81
2022/02/18 03:47:52;;;;;;;11.50;5.13;;;8.90;99.90;;;;;;4913488;29;21000;-82
2022/02/18 03:50:18;;;;;;;15.57;4.27;;;7.70;99.90;;;;;;4911391;29;20962;-82
2022/02/18 03:52:44;;;;;;;13.13;4.57;;;8.00;99.90;;;;;;4926078;29;20873;-81
2022/02/18 03:55:10;;;;;;;12.37;3.67;;;8.00;99.90;;;;;;4919963;29;20544;-81
2022/02/18 03:57:36;;;;;;;14.70;5.03;;;8.00;99.90;;;;;;4915347;29;20281;-81
2022/02/18 04:00:03;;;;;;;7.60;3.27;;;8.00;99.90;;;;;;4907629;29;20207;-82
2022/02/18 04:02:28;;;;;;;10.80;4.60;;;8.30;99.90;;;;;;4921949;29;20590;-83
2022/02/18 04:04:54;;;;;;;7.17;3.20;;;8.10;99.90;;;;;;4912503;29;20223;-81
2022/02/18 04:07:19;;;;;;;13.73;4.13;;;9.30;99.90;;;;;;4935728;23;20248;-89
2022/02/18 04:09:45;;;;;;;12.53;4.30;;;8.00;99.90;;;;;;4911986;29;20633;-90
2022/02/18 04:12:10;;;;;;;24.37;4.60;;;7.90;99.90;;;;;;4897065;29;20276;-90
2022/02/18 04:14:36;;;;;;;11.77;3.93;;;;;;;;;;4894713;29;20557;-90
2022/02/18 04:17:05;;;;;;;13.45;3.70;;;8.10;99.90;;;;;;4897000;29;20705;-90
2022/02/18 04:19:33;;;;;;;10.20;3.83;;;8.10;99.90;;;;;;4893098;29;20201;-89
2022/02/18 04:22:02;;;;;;;21.40;4.87;;;8.10;99.90;;;;;;4905683;29;20440;-90
2022/02/18 04:24:28;;;;;;;9.63;2.87;;;7.70;99.90;;;;;;4897670;29;20469;-90
2022/02/18 04:26:54;;;;;;;18.33;4.57;;;7.40;99.90;;;;;;4907098;29;20516;-90
2022/02/18 04:29:21;;;;;;;13.30;4.20;;;8.00;99.90;;;;;;4903881;29;20960;-90
2022/02/18 04:31:56;;;;;;;9.70;3.80;;;7.20;99.90;;;;;;4878830;29;20210;-89
2022/02/18 04:34:21;;;;;;;17.93;3.97;;;8.10;99.90;;;;;;4878561;29;20456;-90
2022/02/18 04:36:49;;;;;;;10.63;3.93;;;8.00;99.90;;;;;;4890742;29;20648;-90
2022/02/18 04:39:15;;;;;;;14.87;3.33;;;8.00;99.90;;;;;;4875654;29;20738;-90
2022/02/18 04:41:42;;;;;;;13.63;4.00;;;8.10;99.90;;;;;;4900682;29;20595;-90
2022/02/18 04:44:08;;;;;;;67.77;6.60;;;8.00;99.90;;;;;;4868279;29;20793;-90
2022/02/18 04:46:34;;;;;;;11.40;3.00;;;8.00;99.90;;;;;;4877722;29;20453;-89
2022/02/18 04:49:01;;;;;;;14.77;3.70;;;7.60;99.90;;;;;;4893320;29;20865;-90
2022/02/18 04:51:27;;;;;;;12.02;3.50;;;7.70;99.90;;;;;;4877544;29;20205;-90
2022/02/18 04:53:54;;;;;;;8.67;2.40;;;8.10;99.90;;;;;;4876311;29;20232;-91
2022/02/18 04:56:20;;;;;;;17.48;4.28;;;7.60;99.90;;;;;;4860298;29;20442;-91
2022/02/18 04:58:45;;;;;;;12.50;3.80;;;8.20;99.90;;;;;;4871392;29;20189;-90
2022/02/18 05:01:11;;;;;;;22.30;3.13;;;8.20;99.90;;;;;;4877847;29;20270;-90
2022/02/18 05:03:38;;;;;;;17.33;4.10;;;8.20;99.90;;;;;;4876060;29;20224;-89
2022/02/18 05:06:04;;;;;;;23.40;4.57;;;7.70;99.90;;;;;;4871754;29;20295;-91
2022/02/18 05:08:29;;;;;;;20.97;4.67;;;7.70;99.90;;;;;;4892564;29;20271;-89
2022/02/18 05:10:55;;;;;;;16.93;3.93;;;8.30;99.90;;;;;;4893781;29;20480;-89
2022/02/18 05:13:21;;;;;;;12.87;3.93;;;7.30;99.90;;;;;;4893576;29;20212;-89
2022/02/18 05:15:47;;;;;;;11.23;3.30;;;8.40;99.90;;;;;;4894463;29;20214;-90
2022/02/18 05:18:13;;;;;;;14.30;3.00;;;8.30;99.90;;;;;;4895618;29;20201;-89
2022/02/18 05:20:39;;;;;;;9.47;2.93;;;8.30;99.90;;;;;;4892597;29;20465;-90
2022/02/18 05:23:04;;;;;;;5.93;2.40;;;9.20;99.90;;;;;;4892413;29;20503;-89
2022/02/18 05:25:31;;;;;;;12.60;3.73;;;8.30;99.90;;;;;;4892784;29;20180;-89
2022/02/18 05:27:58;;;;;;;14.73;3.20;;;8.00;99.90;;;;;;4874642;29;20197;-90
2022/02/18 05:30:23;;;;;;;9.23;2.53;;;10.80;99.90;;;;;;4875998;29;20441;-91
2022/02/18 05:32:49;;;;;;;6.80;2.70;;;8.40;99.90;;;;;;4875845;29;20867;-90
2022/02/18 05:35:44;;;;;;;20.83;4.10;;;8.40;99.90;;;;;;4878714;29;20197;-90
2022/02/18 05:38:09;;;;;;;12.63;3.23;;;8.80;99.90;;;;;;4877774;29;20219;-90
2022/02/18 05:40:35;;;;;;;14.00;3.47;;;8.40;99.90;;;;;;4896530;29;20974;-90
2022/02/18 05:43:02;;;;;;;9.00;2.83;;;8.30;99.90;;;;;;4877150;29;20240;-89
2022/02/18 05:45:27;;;;;;;13.67;4.60;;;8.30;99.90;;;;;;4886754;29;20196;-90
2022/02/18 05:47:55;;;;;;;12.00;3.47;;;8.50;99.90;;;;;;4865347;29;20810;-89
2022/02/18 05:50:20;;;;;;;6.63;3.00;;;7.80;99.90;;;;;;4892804;29;20207;-90
2022/02/18 05:52:46;;;;;;;10.87;3.83;;;8.30;99.90;;;;;;4878989;29;20507;-90
2022/02/18 05:55:13;;;;;;;7.40;2.35;;;8.50;99.90;;;;;;4881790;29;20338;-89
2022/02/18 05:57:39;;;;;;;18.83;2.73;;;9.10;99.90;;;;;;4902705;29;20200;-89
2022/02/18 06:00:09;;;;;;;10.20;2.77;;;9.90;99.90;;;;;;4912300;29;20460;-89
2022/02/18 06:02:36;;;;;;;11.90;3.53;;;9.20;99.90;;;;;;4889310;29;20456;-90
2022/02/18 06:05:03;;;;;;;7.97;2.90;;;8.70;99.90;;;;;;4905682;29;20312;-88
2022/02/18 06:07:29;;;;;;;11.00;2.77;;;8.70;99.90;;;;;;4902924;29;20200;-89
2022/02/18 06:09:55;;;;;;;8.13;2.57;;;8.70;99.90;;;;;;4898656;29;20453;-90
2022/02/18 06:12:22;;;;;;;10.87;2.80;;;8.70;99.90;;;;;;4897951;29;20441;-90
2022/02/18 06:14:50;;;;;;;8.53;2.60;;;10.20;99.90;;;;;;4897011;29;20866;-90
2022/02/18 06:17:22;;;;;;;9.30;2.33;;;10.40;99.90;;;;;;4871144;29;20543;-89
2022/02/18 06:19:48;;;;;;;11.83;3.17;;;8.50;99.90;;;;;;4893614;29;20496;-88
2022/02/18 06:22:15;;;;;;;7.53;2.57;;;9.30;99.90;;;;;;4892500;29;20921;-89
2022/02/18 06:24:42;;;;;;;16.70;4.40;;;7.50;99.90;;;;;;4873811;29;20189;-90
2022/02/18 06:27:09;;;;;;;14.80;4.70;;;8.10;99.90;;;;;;4892667;29;20993;-89
2022/02/18 06:29:35;;;;;;;4.53;1.23;;;8.00;99.90;;;;;;4896793;29;20453;-89
2022/02/18 06:32:02;;;;;;;10.57;3.33;;;8.00;99.90;;;;;;4894964;29;20433;-90
2022/02/18 06:34:29;;;;;;;5.20;3.13;;;8.10;99.90;;;;;;4867436;29;20189;-89
2022/02/18 06:36:55;;;;;;;15.47;3.33;;;7.60;99.90;;;;;;4892505;29;20508;-89
2022/02/18 06:39:23;;;;;;;7.80;2.17;;;8.10;99.90;;;;;;4879555;29;20481;-90
2022/02/18 06:41:49;;;;;;;8.80;2.60;;;8.10;99.90;;;;;;4896305;29;20502;-91
2022/02/18 06:44:17;;;;;;;5.07;2.63;;;7.80;99.90;;;;;;4883256;29;20866;-88
2022/02/18 06:46:42;;;;;;;13.95;2.95;;;4.70;99.90;;;;;;4902176;29;20562;-89
2022/02/18 06:49:09;;;;;;;8.53;2.83;;;;;;;;;;4892935;29;20192;-88
2022/02/18 06:51:37;;;;;;;24.53;3.83;;;7.90;99.90;;;;;;4204766;29;10000677;-89
2022/02/18 06:54:13;;;;;;;10.77;2.77;;;7.80;99.90;;;;;;4890009;29;20437;-91
2022/02/18 06:56:39;;;;;;;6.85;3.13;;;7.70;99.90;;;;;;4878652;29;20499;-91
2022/02/18 06:59:04;;;;;;;10.87;2.73;;;7.70;99.90;;;;;;4872764;29;20215;-89
2022/02/18 07:01:30;;;;;;;11.77;3.57;;;;;;;;;;4880213;29;20240;-90
2022/02/18 07:03:56;;;;;;;9.37;2.30;;;7.70;99.90;;;;;;4875747;29;20202;-91
2022/02/18 07:06:22;;;;;;;16.13;3.50;;;7.60;99.90;;;;;;4893099;29;20457;-90
2022/02/18 07:08:48;;;;;;;13.77;3.20;;;7.60;99.90;;;;;;4868180;29;20638;-90
2022/02/18 07:11:22;;;;;;;12.93;2.20;;;7.60;99.90;;;;;;4878769;29;20185;-90
2022/02/18 07:13:57;;;;;;;5.40;1.88;;;7.60;99.90;;;;;;4882215;29;20175;-92
2022/02/18 07:16:23;;;;;;;12.23;4.00;;;8.60;99.90;;;;;;4895492;29;20196;-90
2022/02/18 07:18:51;;;;;;;19.40;4.33;;;7.60;99.90;;;;;;4899321;29;20409;-90
2022/02/18 07:21:17;;;;;;;16.37;3.37;;;7.50;99.90;;;;;;4878263;29;20225;-93
2022/02/18 07:23:43;;;;;;;24.97;7.30;;;7.50;99.90;;;;;;4883485;29;20517;-91
2022/02/18 07:26:10;;;;;;;5.40;2.77;;;7.70;99.90;;;;;;4890605;29;20441;-92
2022/02/18 07:28:36;;;;;;;15.05;4.15;;;7.70;99.90;;;;;;4907086;29;20650;-92
2022/02/18 07:31:02;;;;;;;16.80;3.23;;;7.70;99.90;;;;;;4886508;29;20251;-92
2022/02/18 07:33:40;;;;;;;15.07;4.03;;;7.70;99.90;;;;;;4892884;29;20448;-91
2022/02/18 07:36:06;;;;;;;18.88;3.60;;;7.80;99.90;;;;;;4887275;29;20187;-91
2022/02/18 07:38:32;;;;;;;10.30;2.90;;;7.70;99.90;;;;;;4893381;29;20176;-89
2022/02/18 07:40:58;;;;;;;21.07;3.60;;;;;;;;;;4903880;23;20653;-83
2022/02/18 07:43:30;;;;;;;14.07;4.43;;;7.80;99.90;;;;;;4894417;29;20431;-86
2022/02/18 07:46:00;;;;;;;21.48;5.82;;;7.80;99.90;;;;;;4903706;29;20451;-83
2022/02/18 07:48:25;;;;;;;18.17;4.45;;;8.40;99.90;;;;;;4908170;29;20192;-83
2022/02/18 07:50:51;;;;;;;11.23;2.90;;;8.00;99.90;;;;;;4902274;29;20295;-82
2022/02/18 07:53:17;;;;;;;16.33;3.73;;;8.60;99.90;;;;;;4909138;29;20200;-83
2022/02/18 07:55:43;;;;;;;16.33;4.33;;;8.00;99.90;;;;;;4889666;29;20188;-83
2022/02/18 07:58:29;;;;;;;9.50;2.90;;;7.40;99.90;;;;;;4888650;29;20466;-83
2022/02/18 08:00:57;;;;;;;18.97;3.60;;;8.10;99.90;;;;;;4910041;29;20223;-83
2022/02/18 08:03:23;;;;;;;20.73;3.50;;;8.20;99.90;;;;;;4909640;29;20440;-81
2022/02/18 08:05:49;;;;;;;7.00;3.00;;;9.40;99.90;;;;;;4911059;29;20831;-85
2022/02/18 08:08:15;;;;;;;14.70;4.50;;;8.20;99.90;;;;;;4903411;29;20621;-82
2022/02/18 08:10:44;;;;;;;3.15;1.75;;;8.20;99.90;;;;;;4893565;29;20665;-84
2022/02/18 08:13:10;;;;;;;12.00;3.40;;;8.30;99.90;;;;;;4898267;29;20205;-85
2022/02/18 08:15:53;;;;;;;4.73;2.80;;;8.30;99.90;;;;;;4904986;29;20196;-88
2022/02/18 08:18:21;;;;;;;8.00;3.07;;;8.40;99.90;;;;;;4909184;29;20413;-86
2022/02/18 08:20:48;;;;;;;16.13;3.60;;;8.40;99.90;;;;;;4896309;29;20520;-87
2022/02/18 08:23:14;;;;;;;8.57;2.30;;;10.20;99.90;;;;;;4896392;29;20196;-86
2022/02/18 08:25:41;;;;;;;16.03;3.77;;;8.40;99.90;;;;;;4900823;29;20191;-86
2022/02/18 08:28:07;;;;;;;17.23;3.43;;;8.40;99.90;;;;;;4898841;29;20448;-86
2022/02/18 08:30:33;;;;;;;9.50;3.43;;;8.50;99.90;;;;;;4898159;29;20461;-84
2022/02/18 08:32:59;;;;;;;7.43;2.60;;;9.80;99.90;;;;;;4894401;29;20191;-86
2022/02/18 08:35:27;;;;;;;8.27;2.73;;;8.40;99.90;;;;;;4899499;29;20452;-87
2022/02/18 08:37:54;;;;;;;9.45;3.40;;;8.70;99.90;;;;;;4902601;29;20233;-87
2022/02/18 08:40:20;;;;;;;10.65;2.90;;;8.60;99.90;;;;;;4897923;29;20300;-87
2022/02/18 08:42:46;;;;;;;10.53;2.87;;;8.70;99.90;;;;;;4908896;29;20180;-83
2022/02/18 08:45:11;;;;;;;12.57;3.63;;;8.70;99.90;;;;;;4901675;29;20570;-84
2022/02/18 08:47:38;;;;;;;12.03;3.50;;;9.60;99.90;;;;;;4899536;29;20576;-85
2022/02/18 08:50:06;;;;;;;3.30;2.30;;;8.70;99.90;;;;;;4902638;29;20182;-85
2022/02/18 08:52:32;;;;;;;10.03;5.07;;;8.80;99.90;;;;;;4910236;29;20550;-85
2022/02/18 08:54:57;;;;;;;4.63;2.90;;;9.00;99.90;;;;;;4924054;29;20471;-85
2022/02/18 08:57:26;;;;;;;10.23;4.10;;;8.70;99.90;;;;;;4909013;29;20267;-87
2022/02/18 08:59:52;;;;;;;11.03;3.30;;;8.80;99.90;;;;;;4908196;29;20184;-88
2022/02/18 09:02:22;;;;;;;11.97;3.50;;;8.70;99.90;;;;;;4907840;29;20440;-86
2022/02/18 09:04:48;;;;;;;11.40;3.70;;;8.80;99.90;;;;;;4908349;29;20807;-85
2022/02/18 09:07:14;;;;;;;12.83;3.10;;;8.80;99.90;;;;;;4910659;29;20420;-85
2022/02/18 09:09:41;;;;;;;2.60;2.40;;;8.80;99.90;;;;;;4926752;29;20515;-85
2022/02/18 09:12:06;;;;;;;9.83;2.90;;;8.70;99.90;;;;;;4910797;29;20583;-78
2022/02/18 09:14:32;;;;;;;4.97;2.23;;;;;;;;;;4894347;29;20437;-85
2022/02/18 09:16:58;;;;;;;4.17;1.97;;;8.90;99.90;;;;;;4882732;29;20202;-88
2022/02/18 09:19:24;;;;;;;10.23;2.77;;;9.00;99.90;;;;;;4880670;29;20437;-85
2022/02/18 09:21:49;;;;;;;6.30;1.93;;;9.00;99.90;;;;;;4871091;29;20556;-85
2022/02/18 09:24:16;;;;;;;11.03;2.50;;;9.40;99.90;;;;;;4874896;29;20723;-84
2022/02/18 09:26:42;;;;;;;3.57;1.60;;;10.60;99.90;;;;;;4887497;29;20200;-82
2022/02/18 09:29:08;;;;;;;1.90;1.80;;;9.40;99.90;;;;;;4893321;29;20416;-83
2022/02/18 09:31:35;;;;;;;14.50;3.10;;;9.40;99.90;;;;;;4874618;29;20456;-83
2022/02/18 09:34:00;;;;;;;5.07;1.80;;;9.30;99.90;;;;;;4891257;29;20212;-86
2022/02/18 09:36:27;;;;;;;3.20;1.90;;;9.30;99.90;;;;;;4877304;29;20450;-83
2022/02/18 09:38:53;;;;;;;4.57;2.43;;;8.80;99.90;;;;;;4874629;29;20429;-85
2022/02/18 09:41:18;;;;;;;7.00;2.67;;;9.20;99.90;;;;;;4871913;29;20503;-86
2022/02/18 09:43:46;;;;;;;6.33;2.50;;;9.50;99.90;;;;;;4874520;29;20677;-82
2022/02/18 09:46:12;;;;;;;8.57;2.73;;;8.90;99.90;;;;;;4886510;29;20204;-83
2022/02/18 09:48:39;;;;;;;2.03;1.63;;;9.80;99.90;;;;;;4890389;29;20436;-82
2022/02/18 09:51:04;;;;;;;10.27;3.27;;;9.40;99.90;;;;;;4877491;29;20799;-84
2022/02/18 09:53:31;;;;;;;10.50;3.67;;;9.20;99.90;;;;;;4897946;29;20535;-83
2022/02/18 09:55:57;;;;;;;6.50;2.57;;;10.80;99.90;;;;;;4894831;29;20211;-82
2022/02/18 09:58:23;;;;;;;2.50;2.30;;;9.70;99.90;;;;;;4879441;29;20440;-82
2022/02/18 10:00:50;;;;;;;2.37;2.10;;;9.40;99.90;;;;;;4875175;29;20579;-81
2022/02/18 10:03:15;;;;;;;1.10;0.97;;;9.50;99.90;;;;;;4550997;29;10000209;-83
2022/02/18 10:05:41;;;;;;;3.33;2.13;;;10.40;99.90;;;;;;4872928;29;20201;-81
2022/02/18 10:08:18;;;;;;;2.33;2.13;;;9.80;99.90;;;;;;4889257;29;20311;-83
2022/02/18 10:11:06;;;;;;;3.67;2.40;;;9.60;99.90;;;;;;4890306;29;20429;-82
2022/02/18 10:13:38;;;;;;;1.63;1.63;;;9.80;99.90;;;;;;4871305;29;20435;-82
2022/02/18 10:16:10;;;;;;;7.57;2.50;;;10.20;99.90;;;;;;4888640;29;20781;-83
2022/02/18 10:18:58;;;;;;;5.03;2.83;;;9.70;99.90;;;;;;4884406;29;20870;-83
2022/02/18 10:21:32;;;;;;;4.50;2.27;;;9.90;99.90;;;;;;4890013;29;20526;-83
2022/02/18 10:24:12;;;;;;;8.53;2.20;;;10.10;99.90;;;;;;4889185;29;20501;-82
2022/02/18 10:26:39;;;;;;;3.43;2.80;;;10.10;99.90;;;;;;4866124;29;20452;-81
2022/02/18 10:29:19;;;;;;;6.23;3.40;;;10.80;99.90;;;;;;4891701;29;20987;-83
2022/02/18 10:32:12;;;;;;;10.07;3.10;;;10.40;99.90;;;;;;4863339;29;20438;-81
2022/02/18 10:35:00;;;;;;;4.97;2.27;;;10.30;99.90;;;;;;4884976;29;20443;-83
2022/02/18 10:37:31;;;;;;;4.67;2.47;;;10.40;99.90;;;;;;4893385;29;20424;-82
2022/02/18 10:40:13;;;;;;;2.70;2.50;;;10.60;99.90;;;;;;4873157;29;20465;-83
2022/02/18 10:42:43;;;;;;;1.17;1.07;;;10.30;99.90;;;;;;4874881;29;20451;-83
2022/02/18 10:45:29;;;;;;;2.40;2.03;;;9.50;99.90;;;;;;4872696;29;20456;-83
2022/02/18 10:48:07;;;;;;;11.47;2.17;;;11.00;99.90;;;;;;4888779;29;20496;-83
2022/02/18 10:51:11;;;;;;;5.30;2.30;;;10.10;99.90;;;;;;4870866;29;20450;-83
2022/02/18 10:53:43;;;;;;;2.00;1.50;;;10.30;99.90;;;;;;4826415;29;20882;-82
2022/02/18 10:56:15;;;;;;;5.20;1.77;;;10.20;99.90;;;;;;4875954;29;20451;-83
2022/02/18 10:58:51;;;;;;;2.93;1.80;;;10.50;99.90;;;;;;4890800;29;20471;-84
2022/02/18 11:01:25;;;;;;;5.70;2.57;;;10.50;99.90;;;;;;4892304;29;20518;-83
2022/02/18 11:03:58;;;;;;;2.40;1.40;;;13.20;99.90;;;;;;4873812;29;20517;-83
2022/02/18 11:06:41;;;;;;;2.73;1.90;;;10.70;99.90;;;;;;4889285;29;20447;-82
2022/02/18 11:12:14;;;;;;;3.47;1.67;;;10.90;99.90;;;;;;4881778;29;20448;-85
2022/02/18 11:14:46;;;;;;;1.33;1.33;;;12.30;99.90;;;;;;4904921;29;20977;-86
2022/02/18 11:17:19;;;;;;;3.40;1.87;;;10.70;99.90;;;;;;4879641;29;20536;-88
2022/02/18 11:19:58;;;;;;;3.77;1.60;;;10.80;99.90;;;;;;4879545;29;20537;-83
2022/02/18 11:22:24;;;;;;;2.47;2.30;;;10.80;99.90;;;;;;4867960;29;20480;-86
2022/02/18 11:24:50;;;;;;;2.23;1.60;;;10.80;99.90;;;;;;4884317;29;20912;-86
2022/02/18 11:27:15;;;;;;;2.13;1.70;;;10.80;99.90;;;;;;4884895;29;20260;-86
2022/02/18 11:29:43;;;;;;;4.07;1.40;;;10.90;99.90;;;;;;4901420;29;20472;-85
2022/02/18 11:32:28;;;;;;;1.50;1.40;;;10.90;99.90;;;;;;4897845;29;20766;-86
2022/02/18 11:35:24;;;;;;;2.10;1.95;;;9.30;99.90;;;;;;4564302;29;10001287;-85
2022/02/18 11:38:22;;;;;;;4.77;1.30;;;11.10;99.90;;;;;;4889716;29;20189;-84
2022/02/18 11:41:44;;;;;;;1.80;1.40;;;11.00;99.90;;;;;;4888002;29;20488;-87
2022/02/18 11:44:12;;;;;;;1.50;1.50;;;10.90;99.90;;;;;;4814910;29;20827;-80
2022/02/18 11:46:38;;;;;;;1.33;1.33;;;10.70;99.90;;;;;;4860043;29;20433;-80
2022/02/18 11:49:08;;;;;;;0.80;0.80;;;11.00;99.90;;;;;;4894731;29;20485;-78
2022/02/18 11:51:41;;;;;;;1.53;1.20;;;11.40;99.90;;;;;;4893664;29;20184;-79
2022/02/18 11:54:24;;;;;;;1.20;1.10;;;10.90;99.90;;;;;;4895490;29;20432;-80
2022/02/18 11:57:29;;;;;;;1.87;1.70;;;11.00;99.90;;;;;;4882360;29;20433;-85
2022/02/18 12:00:07;;;;;;;1.90;1.70;;;11.40;99.90;;;;;;4877931;29;20804;-85
2022/02/18 12:02:53;;;;;;;0.97;0.97;;;11.20;99.90;;;;;;4883712;29;20453;-82
2022/02/18 12:05:20;;;;;;;0.90;0.90;;;11.40;99.90;;;;;;4867926;29;20820;-84
2022/02/18 12:08:40;;;;;;;0.70;0.70;;;11.50;99.90;;;;;;4897586;29;20512;-82
2022/02/18 12:11:19;;;;;;;0.50;0.50;;;11.10;99.90;;;;;;4899287;29;20429;-84
2022/02/18 12:14:19;;;;;;;1.00;0.80;;;11.80;99.90;;;;;;4907974;29;20433;-84
2022/02/18 12:16:48;;;;;;;0.50;0.50;;;13.60;99.90;;;;;;4885289;29;20490;-85
2022/02/18 12:19:33;;;;;;;0.83;0.73;;;11.80;99.90;;;;;;4883990;29;20433;-85
2022/02/18 12:22:07;;;;;;;0.40;0.40;;;12.40;99.90;;;;;;4879656;29;20491;-84
2022/02/18 12:25:06;;;;;;;0.30;0.30;;;12.50;99.90;;;;;;4881426;29;20409;-83
2022/02/18 12:27:51;;;;;;;0.30;0.30;;;12.50;99.90;;;;;;4879569;29;20497;-84
2022/02/18 12:30:22;;;;;;;1.20;0.30;;;13.10;99.90;;;;;;4891102;29;20522;-85
2022/02/18 12:33:02;;;;;;;1.33;0.70;;;12.70;99.90;;;;;;4897031;29;20500;-83
2022/02/18 12:35:46;;;;;;;0.60;0.60;;;12.70;99.90;;;;;;4895096;29;20459;-82
2022/02/18 12:38:40;;;;;;;0.50;0.50;;;12.80;99.90;;;;;;4882253;29;20435;-83
2022/02/18 12:41:13;;;;;;;0.40;0.40;;;12.90;99.90;;;;;;4869825;29;20480;-82
2022/02/18 12:43:41;;;;;;;0.30;0.30;;;13.10;99.90;;;;;;4894271;29;20796;-83
2022/02/18 12:46:17;;;;;;;0.30;0.30;;;13.00;99.90;;;;;;4897064;29;20456;-85
2022/02/18 12:48:47;;;;;;;0.47;0.47;;;12.90;99.90;;;;;;4881346;29;20974;-86
2022/02/18 12:51:25;;;;;;;1.83;0.70;;;13.60;99.90;;;;;;4884377;29;20465;-86
2022/02/18 12:53:53;;;;;;;0.70;0.30;;;13.10;99.90;;;;;;4875209;29;20456;-85
2022/02/18 12:56:39;;;;;;;0.50;0.50;;;12.90;99.90;;;;;;4882137;29;20432;-89
2022/02/18 13:01:55;;;;;;;0.40;0.40;;;13.00;99.90;;;;;;4069691;26;20498;-85
2022/02/18 13:04:29;;;;;;;0.40;0.40;;;13.10;99.90;;;;;;4943113;29;20422;-84
2022/02/18 13:06:58;;;;;;;2.03;1.90;;;13.10;99.90;;;;;;4914073;29;20535;-86